To NAV CANADA Home Page Login to a new session Search on AWWS site Feedback and Comments Disclaimer Vers la page française équivalente Tips FAQ What's new on the site To the Forecasts and Observations / NOTAM section To "File a Flight Plan" website Publications and other links Update of the User's profile FIC Telephone Numbers My Weather Data Folder Route Weather Data Regional Weather Data Local Weather Data To the Forecasts and Observations / NOTAM section
Request Generated 09/30/2016 at 13:22:25 UTC . Weather information available at that time is displayed.

METAR/TAF

ST. JOHN'S/ST. JOHN'S INTL/NL    

METAR CYYT 301300Z 33021G31KT 15SM FEW015 BKN023 09/06 A3010 RMK
SC2SC4 SLP198=
METAR CYYT 301200Z 35023G33KT 15SM SCT045 09/05 A3006 RMK SC4 SLP185=
SPECI CYYT 301147Z 36021G35KT 15SM SCT045 09/05 A3006 RMK SC4 SLP183=
METAR CYYT 301100Z 35021G36KT 15SM SCT024 BKN053 08/05 A3004 RMK
SC3SC2 SLP178=

TAF AMD CYYT 301321Z 3013/0112 33020G35KT P6SM SCT020 BKN050 TEMPO
3013/3015 BKN020
FM301500 33015G25KT P6SM FEW020
BECMG 3022/3024 33010KT
FM010500 32010KT P6SM SCT010 BKN030
BECMG 0109/0111 28012KT
RMK NXT FCST BY 301800Z=
Your time UTC time
Weather data provided by Environment Canada and NAV CANADA